Wilkes Barre, PA (18711)

1:52 PM EDT on May 31, 2016 (GMT -0400)
Larkmount Manor | | Change Station

Elev 676 ft 41.27 °N, 75.92 °W | Updated 10 minutes ago

Clear
Clear
84.2 °F
Feels Like 83 °F
N
4.2
Wind Variable Wind from East

Today
High -- | Low -- °F
--% Chance of Precip.
Yesterday
High -- | Low -- °F
Precip. -- in
Pressure 29.98 in
Visibility 10.0 miles
Clouds Clear
Heat Index 83 °F
Dew Point 57 °F
Humidity 40%
Rainfall in
Snow Depth Not available.
5:33 AM 8:29 PM
Waning Crescent, 26% visible
METAR KAVP 311654Z 01006KT 10SM CLR 27/12 A3000 RMK AO2 SLP150 T02720122
Pressure 29.98 in
Visibility 10.0 miles
Clouds Clear
Heat Index 83 °F
Dew Point 57 °F
Humidity 40%
Rainfall in
Snow Depth Not available.
5:33 AM 8:29 PM
Waning Crescent, 26% visible
METAR KAVP 311654Z 01006KT 10SM CLR 27/12 A3000 RMK AO2 SLP150 T02720122
A shift in the weather pattern is ahead for much of the country as May ends and June begins. This shift will bring temperature changes for many, as well as an increase of showers and thunderstorms across portions of the South and East.

Cooler conditions will be found across parts of the East, although for most locations highs will be close to average for this time of year. Record heat was experienced in the Northeast on Saturday and warmer than average temperatures will persist for much of the Midwest and Northeast into midweek. Most locations east of the Mississippi River will see highs near to above-average through at least Wednesday.

Then, late this week a cold front will push eastward through the Midwest and into the Mid-Atlantic and Northeast. Cooler temperatures are expected behind this system, although many areas will see temperatures return to near average for early June.

10-Day Weather Forecast

Almanac

Astronomy

May. 31, 2016 Rise Set
Actual Time
Civil Twilight
Nautical Twilight
Astronomical Twilight
Moon
Length of Visible Light
Length of Day
Tomorrow will be .
, % of the Moon is Illuminated

Today's Extremes

State Highs State Lows

Community

WunderPhotos

Upload Photos

1,914,913 photos uploaded!

WunderBlog® & News

Nearby

Air Quality

  Air Quality AQ Index Pollutant
Not available.

Snow Depth

Station Depth Elevation

Earthquake Activity

City Distance Mag. Time & Date
Minimum magnitude displayed is 2.5.

Coastal Water Temperatures

Place Temperature

Stations

Nearby Weather Stations

Station Location Temp. Windchill Dew Point Humidity Wind Precip. Elev Updated Type
                   

Watches & Warnings

There are currently no watches in effect.